createdAt,value
2022-09-12T00:01:08.818Z,15.77
2022-09-12T00:03:35.968Z,15.82
2022-09-12T00:06:28.713Z,15.55
2022-09-12T00:09:01.833Z,15.77
2022-09-12T00:11:29.182Z,15.12
2022-09-12T00:13:58.299Z,15.77
2022-09-12T00:16:26.570Z,15.67
2022-09-12T00:18:53.800Z,15.24
2022-09-12T00:21:25.450Z,15.80
2022-09-12T00:23:52.059Z,15.68
2022-09-12T00:26:19.379Z,15.21
2022-09-12T00:28:49.775Z,15.60
2022-09-12T00:31:19.147Z,15.82
2022-09-12T00:39:28.177Z,15.23
2022-09-12T00:41:54.982Z,15.41
2022-09-12T00:44:21.594Z,15.90
2022-09-12T00:46:57.379Z,15.81
2022-09-12T00:49:32.645Z,15.72
2022-09-12T00:52:08.435Z,15.37
2022-09-12T00:54:43.222Z,15.67
2022-09-12T00:57:13.363Z,15.75
2022-09-12T00:59:43.468Z,15.71
2022-09-12T01:02:12.894Z,15.44
2022-09-12T01:04:40.919Z,15.04
2022-09-12T01:07:13.014Z,15.30
2022-09-12T01:09:40.248Z,15.72
2022-09-12T01:12:06.991Z,14.08
2022-09-12T01:14:34.948Z,15.60
2022-09-12T01:17:01.784Z,14.73
2022-09-12T01:20:00.824Z,15.48
2022-09-12T01:22:56.121Z,15.58
2022-09-12T01:25:28.729Z,15.69
2022-09-12T01:27:55.395Z,15.72
2022-09-12T01:30:42.945Z,15.80
2022-09-12T01:33:34.070Z,15.86
2022-09-12T01:36:35.810Z,15.79
2022-09-12T01:39:05.258Z,15.24
2022-09-12T01:41:40.271Z,15.81
2022-09-12T01:44:34.135Z,15.74
2022-09-12T01:47:16.434Z,15.29
2022-09-12T01:49:43.068Z,15.63
2022-09-12T01:52:44.906Z,15.63
2022-09-12T01:55:35.321Z,15.70
2022-09-12T01:58:23.162Z,14.96
2022-09-12T02:01:05.032Z,15.30
2022-09-12T02:03:35.067Z,15.62
2022-09-12T02:06:13.265Z,15.68
2022-09-12T02:08:50.232Z,15.07
2022-09-12T02:11:17.248Z,15.63
2022-09-12T02:13:52.784Z,14.69
2022-09-12T02:16:24.241Z,13.29
2022-09-12T02:18:57.547Z,14.39
2022-09-12T02:21:32.941Z,14.89
2022-09-12T02:24:02.759Z,15.11
2022-09-12T02:26:35.638Z,15.51
2022-09-12T02:29:03.454Z,14.63
2022-09-12T02:31:42.343Z,15.45
2022-09-12T02:34:39.936Z,15.32
2022-09-12T02:37:18.690Z,15.41
2022-09-12T02:39:45.710Z,14.00
2022-09-12T02:42:12.775Z,15.27
2022-09-12T02:44:39.772Z,15.23
2022-09-12T02:47:16.792Z,15.23
2022-09-12T02:49:43.807Z,15.32
2022-09-12T02:52:10.514Z,15.03
2022-09-12T02:54:38.302Z,14.68
2022-09-12T02:57:14.936Z,15.35
2022-09-12T02:59:43.867Z,15.18
2022-09-12T03:02:16.431Z,15.30
2022-09-12T03:05:09.355Z,15.18
2022-09-12T03:07:48.967Z,15.19
2022-09-12T03:10:28.959Z,15.22
2022-09-12T03:13:08.035Z,15.22
2022-09-12T03:15:48.551Z,15.17
2022-09-12T03:18:30.033Z,14.58
2022-09-12T03:21:02.643Z,15.22
2022-09-12T03:23:40.778Z,14.71
2022-09-12T03:26:21.754Z,14.56
2022-09-12T03:28:59.560Z,15.30
2022-09-12T03:31:57.889Z,15.35
2022-09-12T03:34:27.888Z,15.24
2022-09-12T03:36:57.151Z,15.22
2022-09-12T03:39:24.609Z,15.24
2022-09-12T03:41:55.963Z,15.25
2022-09-12T03:44:25.343Z,15.23
2022-09-12T03:47:35.233Z,15.23
2022-09-12T03:50:24.690Z,13.68
2022-09-12T03:52:51.964Z,15.20
2022-09-12T03:55:19.379Z,15.09
2022-09-12T03:57:49.622Z,13.57
2022-09-12T04:00:21.534Z,15.03
2022-09-12T04:02:48.831Z,14.05
2022-09-12T04:05:21.210Z,14.82
2022-09-12T04:07:47.981Z,15.00
2022-09-12T04:10:17.313Z,15.00
2022-09-12T04:12:46.574Z,15.03
2022-09-12T04:15:13.165Z,15.05
2022-09-12T04:17:42.471Z,15.07
2022-09-12T04:20:12.586Z,15.17
2022-09-12T04:22:40.913Z,14.95
2022-09-12T04:25:16.961Z,15.24
2022-09-12T04:27:52.930Z,15.25
2022-09-12T04:30:22.966Z,14.35
2022-09-12T04:32:53.523Z,14.79
2022-09-12T04:35:43.365Z,15.43
2022-09-12T04:38:35.101Z,14.75
2022-09-12T04:41:23.611Z,15.43
2022-09-12T04:44:43.304Z,15.44
2022-09-12T04:47:16.892Z,15.48
2022-09-12T04:50:17.921Z,14.59
2022-09-12T04:52:52.047Z,14.70
2022-09-12T04:55:19.468Z,15.59
2022-09-12T04:57:49.270Z,13.40
2022-09-12T05:00:19.619Z,15.56
2022-09-12T05:02:51.607Z,14.24
2022-09-12T05:05:18.364Z,15.57
2022-09-12T05:07:49.754Z,15.59
2022-09-12T05:10:16.546Z,15.58
2022-09-12T05:12:48.643Z,15.61
2022-09-12T05:15:15.328Z,15.57
2022-09-12T05:17:46.592Z,15.64
2022-09-12T05:20:13.320Z,15.18
2022-09-12T05:22:42.419Z,14.55
2022-09-12T05:25:11.847Z,15.59
2022-09-12T05:27:40.782Z,14.29
2022-09-12T05:30:10.293Z,14.90
2022-09-12T05:32:37.029Z,14.70
2022-09-12T05:35:06.791Z,15.76
2022-09-12T05:37:33.456Z,14.60
2022-09-12T05:40:00.281Z,15.27
2022-09-12T05:42:29.924Z,15.93
2022-09-12T05:45:01.989Z,14.97
2022-09-12T05:47:28.806Z,15.95
2022-09-12T05:49:59.139Z,15.88
2022-09-12T05:52:26.550Z,15.87
2022-09-12T05:54:55.720Z,15.83
2022-09-12T05:57:22.399Z,15.56
2022-09-12T05:59:49.762Z,15.77
2022-09-12T06:02:16.409Z,15.74
2022-09-12T06:04:43.711Z,15.86
2022-09-12T06:07:15.196Z,15.29
2022-09-12T06:09:42.272Z,15.65
2022-09-12T06:12:08.965Z,14.36
2022-09-12T06:14:39.064Z,15.44
2022-09-12T06:17:05.861Z,15.25
2022-09-12T06:19:32.590Z,15.97
2022-09-12T06:21:59.690Z,15.46
2022-09-12T06:24:26.372Z,15.58
2022-09-12T06:26:53.226Z,15.76
2022-09-12T06:29:20.247Z,15.49
2022-09-12T06:31:48.997Z,15.82
2022-09-12T06:34:18.237Z,16.33
2022-09-12T06:36:47.219Z,16.38
2022-09-12T06:39:19.263Z,16.46
2022-09-12T06:41:46.575Z,16.59
2022-09-12T06:44:18.803Z,15.93
2022-09-12T06:46:48.898Z,16.73
2022-09-12T06:49:18.063Z,16.80
2022-09-12T06:51:44.882Z,16.48
2022-09-12T06:54:16.753Z,16.97
2022-09-12T06:56:46.280Z,16.66
2022-09-12T06:59:13.117Z,17.03
2022-09-12T07:01:41.204Z,16.60
2022-09-12T07:04:10.164Z,17.01
2022-09-12T07:06:41.517Z,16.44
2022-09-12T07:09:11.855Z,16.91
2022-09-12T07:11:40.294Z,17.22
2022-09-12T07:14:08.452Z,17.27
2022-09-12T07:16:38.373Z,16.64
2022-09-12T07:19:08.160Z,15.94
2022-09-12T07:21:40.647Z,17.36
2022-09-12T07:24:10.611Z,17.76
2022-09-12T07:26:38.435Z,17.86
2022-09-12T07:29:32.797Z,17.54
2022-09-12T07:31:56.539Z,17.60
2022-09-12T07:34:23.236Z,18.10
2022-09-12T07:36:49.895Z,18.04
2022-09-12T07:39:16.579Z,17.22
2022-09-12T07:41:45.566Z,17.93
2022-09-12T07:44:14.460Z,17.62
2022-09-12T07:46:41.445Z,17.94
2022-09-12T07:49:08.539Z,18.18
2022-09-12T07:51:37.827Z,17.74
2022-09-12T07:54:09.221Z,18.35
2022-09-12T07:56:39.242Z,17.39
2022-09-12T07:59:06.803Z,18.51
2022-09-12T08:01:33.677Z,17.95
2022-09-12T08:04:00.688Z,18.47
2022-09-12T08:06:30.357Z,18.63
2022-09-12T08:08:58.240Z,18.73
2022-09-12T08:11:26.333Z,18.76
2022-09-12T08:13:57.209Z,18.80
2022-09-12T08:16:27.017Z,18.89
2022-09-12T08:18:54.132Z,18.18
2022-09-12T08:21:29.755Z,18.83
2022-09-12T08:24:01.631Z,18.52
2022-09-12T08:26:33.697Z,18.76
2022-09-12T08:29:02.629Z,18.14
2022-09-12T08:31:36.493Z,18.77
2022-09-12T08:34:05.541Z,17.62
2022-09-12T08:36:34.983Z,18.77
2022-09-12T08:39:04.791Z,17.78
2022-09-12T08:41:42.322Z,17.94
2022-09-12T08:44:12.259Z,18.94
2022-09-12T08:46:48.680Z,18.95
2022-09-12T08:49:42.140Z,17.95
2022-09-12T08:52:27.004Z,17.79
2022-09-12T08:54:55.014Z,18.60
2022-09-12T08:57:24.594Z,19.14
2022-09-12T08:59:51.675Z,19.13
2022-09-12T09:02:40.417Z,19.65
2022-09-12T09:05:11.957Z,19.82
2022-09-12T09:07:38.637Z,19.80
2022-09-12T09:10:24.883Z,19.78
2022-09-12T09:13:01.975Z,19.91
2022-09-12T09:15:41.333Z,19.94
2022-09-12T09:18:19.462Z,19.67
2022-09-12T09:20:53.416Z,19.93
2022-09-12T09:23:32.124Z,20.35
2022-09-12T09:26:07.284Z,20.14
2022-09-12T09:28:40.194Z,20.21
2022-09-12T09:31:17.723Z,19.97
2022-09-12T09:33:49.577Z,20.53
2022-09-12T09:36:35.116Z,20.67
2022-09-12T09:39:06.367Z,20.20
2022-09-12T09:41:40.981Z,20.72
2022-09-12T09:46:34.673Z,21.00
2022-09-12T09:49:04.142Z,21.20
2022-09-12T09:51:37.046Z,21.75
2022-09-12T09:54:13.503Z,21.91
2022-09-12T09:56:45.861Z,22.00
2022-09-12T09:59:28.341Z,21.79
2022-09-12T10:02:04.105Z,21.48
2022-09-12T10:04:41.430Z,21.60
2022-09-12T10:07:21.777Z,21.79
2022-09-12T10:10:07.175Z,21.94
2022-09-12T10:12:38.807Z,21.74
2022-09-12T10:15:34.822Z,22.03
2022-09-12T10:18:04.469Z,22.03
2022-09-12T10:20:43.221Z,21.89
2022-09-12T10:23:21.485Z,21.77
2022-09-12T10:25:53.834Z,21.47
2022-09-12T10:28:40.972Z,21.68
2022-09-12T10:31:14.372Z,20.48
2022-09-12T10:33:47.447Z,21.35
2022-09-12T10:36:17.432Z,21.49
2022-09-12T10:38:50.660Z,21.96
2022-09-12T10:41:17.899Z,22.06
2022-09-12T10:43:47.069Z,21.81
2022-09-12T10:46:22.393Z,22.54
2022-09-12T10:48:51.137Z,22.64
2022-09-12T10:51:23.926Z,22.59
2022-09-12T10:54:12.764Z,22.07
2022-09-12T10:56:52.774Z,21.64
2022-09-12T10:59:34.419Z,21.80
2022-09-12T11:02:21.501Z,21.82
2022-09-12T11:05:04.306Z,22.02
2022-09-12T11:07:39.660Z,22.20
2022-09-12T11:10:15.276Z,22.22
2022-09-12T11:13:14.378Z,21.27
2022-09-12T11:16:35.525Z,21.75
2022-09-12T11:19:35.860Z,20.67
2022-09-12T11:22:17.563Z,21.54
2022-09-12T11:25:22.410Z,21.73
2022-09-12T11:28:17.108Z,22.20
2022-09-12T11:30:59.911Z,22.32
2022-09-12T11:33:44.635Z,22.86
2022-09-12T11:36:27.587Z,22.69
2022-09-12T11:39:03.753Z,22.18
2022-09-12T11:41:35.373Z,21.70
2022-09-12T11:44:05.191Z,21.93
2022-09-12T11:46:34.376Z,21.86
2022-09-12T11:49:13.362Z,21.68
2022-09-12T11:51:48.666Z,21.59
2022-09-12T11:54:25.383Z,21.31
2022-09-12T11:57:01.835Z,20.98
2022-09-12T11:59:43.635Z,21.16
2022-09-12T12:02:26.957Z,21.16
2022-09-12T12:05:22.785Z,21.03
2022-09-12T12:07:58.338Z,21.13
2022-09-12T12:10:28.933Z,21.08
2022-09-12T12:12:56.863Z,21.85
2022-09-12T12:15:25.269Z,21.64
2022-09-12T12:18:22.131Z,22.19
2022-09-12T12:20:50.304Z,22.04
2022-09-12T12:23:26.291Z,22.59
2022-09-12T12:25:56.547Z,22.51
2022-09-12T12:28:52.780Z,22.67
2022-09-12T12:31:19.537Z,22.56
2022-09-12T12:33:46.346Z,22.68
2022-09-12T12:36:38.543Z,22.86
2022-09-12T12:39:33.268Z,22.95
2022-09-12T12:42:00.735Z,22.94
2022-09-12T12:44:48.621Z,22.88
2022-09-12T12:47:22.355Z,22.76
2022-09-12T12:49:56.376Z,23.00
2022-09-12T12:52:31.812Z,23.77
2022-09-12T12:55:16.124Z,23.32
2022-09-12T12:57:51.212Z,23.21
2022-09-12T13:00:21.091Z,23.13
2022-09-12T13:03:09.025Z,22.92
2022-09-12T13:05:51.721Z,22.87
2022-09-12T13:08:20.835Z,24.79
2022-09-12T13:10:58.052Z,25.86
2022-09-12T13:13:36.785Z,27.13
2022-09-12T13:16:03.602Z,28.17
2022-09-12T13:18:46.489Z,28.88
2022-09-12T13:21:20.771Z,29.58
2022-09-12T13:24:05.763Z,30.54
2022-09-12T13:26:41.735Z,30.71
2022-09-12T13:29:28.100Z,29.71
2022-09-12T13:31:56.225Z,29.00
2022-09-12T13:34:28.113Z,28.51
2022-09-12T13:37:40.255Z,27.47
2022-09-12T13:41:02.305Z,26.94
2022-09-12T13:43:47.028Z,25.95
2022-09-12T13:46:30.480Z,24.52
2022-09-12T13:49:05.018Z,25.73
2022-09-12T13:51:32.548Z,26.78
2022-09-12T13:54:03.584Z,27.96
2022-09-12T13:56:33.254Z,28.37
2022-09-12T13:59:02.515Z,28.60
2022-09-12T14:01:43.516Z,28.44
2022-09-12T14:04:41.071Z,29.35
2022-09-12T14:07:17.182Z,30.23
2022-09-12T14:09:47.612Z,29.98
2022-09-12T14:12:21.998Z,29.94
2022-09-12T14:14:50.276Z,30.18
2022-09-12T14:17:31.699Z,30.39
2022-09-12T14:20:07.121Z,30.11
2022-09-12T14:22:36.442Z,29.82
2022-09-12T14:25:03.159Z,29.40
2022-09-12T14:27:43.111Z,29.72
2022-09-12T14:30:39.071Z,30.51
2022-09-12T14:33:11.931Z,31.46
2022-09-12T14:35:45.210Z,31.02
2022-09-12T14:38:11.912Z,30.73
2022-09-12T14:40:46.499Z,30.59
2022-09-12T14:43:33.636Z,29.49
2022-09-12T14:46:14.808Z,29.74
2022-09-12T14:48:49.052Z,29.78
2022-09-12T14:51:25.344Z,29.82
2022-09-12T14:53:52.059Z,31.06
2022-09-12T14:56:22.259Z,31.85
2022-09-12T14:58:49.484Z,30.73
2022-09-12T15:01:16.172Z,32.56
2022-09-12T15:03:49.538Z,33.02
2022-09-12T15:06:37.705Z,32.87
2022-09-12T15:09:08.920Z,32.63
2022-09-12T15:11:35.609Z,31.02
2022-09-12T15:14:17.468Z,30.91
2022-09-12T15:16:48.946Z,31.27
2022-09-12T15:19:15.822Z,30.02
2022-09-12T15:21:45.027Z,30.08
2022-09-12T15:24:14.087Z,30.84
2022-09-12T15:26:40.749Z,31.10
2022-09-12T15:29:07.587Z,30.89
2022-09-12T15:31:34.299Z,31.99
2022-09-12T15:34:02.455Z,31.39
2022-09-12T15:36:29.405Z,30.12
2022-09-12T15:38:59.164Z,29.21
2022-09-12T15:41:35.892Z,29.34
2022-09-12T15:44:08.429Z,29.06
2022-09-12T15:46:38.000Z,28.16
2022-09-12T15:49:07.242Z,27.20
2022-09-12T15:51:36.794Z,26.98
2022-09-12T15:54:04.393Z,26.82
2022-09-12T15:56:31.086Z,26.66
2022-09-12T15:59:02.444Z,26.12
2022-09-12T16:01:31.308Z,25.34
2022-09-12T16:04:03.120Z,25.90
2022-09-12T16:06:36.259Z,25.65
2022-09-12T16:09:05.910Z,25.17
2022-09-12T16:11:33.095Z,25.50
2022-09-12T16:14:00.058Z,25.39
2022-09-12T16:16:29.044Z,24.31
2022-09-12T16:18:55.731Z,24.70
2022-09-12T16:21:22.459Z,24.98
2022-09-12T16:23:49.501Z,24.89
2022-09-12T16:26:19.057Z,24.72
2022-09-12T16:28:48.205Z,24.56
2022-09-12T16:31:15.040Z,24.75
2022-09-12T16:33:46.437Z,24.01
2022-09-12T16:36:15.492Z,23.89
2022-09-12T16:38:47.481Z,24.02
2022-09-12T16:41:17.871Z,23.08
2022-09-12T16:43:47.626Z,23.07
2022-09-12T16:46:20.211Z,22.12
2022-09-12T16:48:54.933Z,21.63
2022-09-12T16:51:26.907Z,22.37
2022-09-12T16:53:59.315Z,22.36
2022-09-12T16:56:26.257Z,22.27
2022-09-12T16:58:53.106Z,22.18
2022-09-12T17:01:25.343Z,21.77
2022-09-12T17:03:54.140Z,21.33
2022-09-12T17:06:20.981Z,21.38
2022-09-12T17:08:49.927Z,21.60
2022-09-12T17:11:23.781Z,21.46
2022-09-12T17:14:06.065Z,20.92
2022-09-12T17:16:38.281Z,20.77
2022-09-12T17:19:06.000Z,20.51
2022-09-12T17:21:32.882Z,20.37
2022-09-12T17:24:01.788Z,20.64
2022-09-12T17:26:28.515Z,20.46
2022-09-12T17:28:55.242Z,20.26
2022-09-12T17:31:22.136Z,20.26
2022-09-12T17:33:56.065Z,20.08
2022-09-12T17:36:23.213Z,20.21
2022-09-12T17:38:51.496Z,20.26
2022-09-12T17:41:23.405Z,20.35
2022-09-12T17:43:55.696Z,20.28
2022-09-12T17:46:24.220Z,19.92
2022-09-12T17:48:56.517Z,19.76
2022-09-12T17:51:30.968Z,20.17
2022-09-12T17:53:59.161Z,20.17
2022-09-12T17:56:28.126Z,20.09
2022-09-12T17:59:01.165Z,20.02
2022-09-12T18:01:49.428Z,19.69
2022-09-12T18:04:16.867Z,19.68
2022-09-12T18:06:47.905Z,19.47
2022-09-12T18:09:18.032Z,19.76
2022-09-12T18:11:45.219Z,18.88
2022-09-12T18:14:14.221Z,19.60
2022-09-12T18:16:41.945Z,19.17
2022-09-12T18:19:11.237Z,19.49
2022-09-12T18:21:40.219Z,19.40
2022-09-12T18:24:06.975Z,18.94
2022-09-12T18:26:37.183Z,19.21
2022-09-12T18:29:06.392Z,18.83
2022-09-12T18:31:35.748Z,18.83
2022-09-12T18:34:06.313Z,19.27
2022-09-12T18:36:38.275Z,19.04
2022-09-12T18:39:07.376Z,18.15
2022-09-12T18:41:36.732Z,19.20
2022-09-12T18:44:04.672Z,18.89
2022-09-12T18:46:33.049Z,18.90
2022-09-12T18:49:00.283Z,18.90
2022-09-12T18:51:31.746Z,18.97
2022-09-12T18:54:00.816Z,18.85
2022-09-12T18:56:32.494Z,19.05
2022-09-12T18:59:02.068Z,18.26
2022-09-12T19:01:34.074Z,18.05
2022-09-12T19:04:07.669Z,18.17
2022-09-12T19:06:39.411Z,18.84
2022-09-12T19:09:10.167Z,18.77
2022-09-12T19:11:43.119Z,18.13
2022-09-12T19:14:09.867Z,17.65
2022-09-12T19:16:37.016Z,18.39
2022-09-12T19:19:04.192Z,18.40
2022-09-12T19:21:31.742Z,18.41
2022-09-12T19:24:11.327Z,18.60
2022-09-12T19:26:39.163Z,18.35
2022-09-12T19:29:06.498Z,18.51
2022-09-12T19:31:35.533Z,18.55
2022-09-12T19:34:04.368Z,17.98
2022-09-12T19:36:47.671Z,18.17
2022-09-12T19:39:16.359Z,18.16
2022-09-12T19:41:44.003Z,18.38
2022-09-12T19:44:13.608Z,18.34
2022-09-12T19:46:45.522Z,18.31
2022-09-12T19:49:12.895Z,18.14
2022-09-12T19:51:39.971Z,18.26
2022-09-12T19:54:07.870Z,18.20
2022-09-12T19:56:34.841Z,18.16
2022-09-12T19:59:01.780Z,17.92
2022-09-12T20:01:29.016Z,17.58
2022-09-12T20:03:57.212Z,18.00
2022-09-12T20:06:26.372Z,17.39
2022-09-12T20:08:53.252Z,17.92
2022-09-12T20:11:21.748Z,17.77
2022-09-12T20:13:48.469Z,17.54
2022-09-12T20:16:21.617Z,17.91
2022-09-12T20:18:56.674Z,16.74
2022-09-12T20:21:31.643Z,17.90
2022-09-12T20:24:10.362Z,17.88
2022-09-12T20:26:37.817Z,16.85
2022-09-12T20:29:05.788Z,17.54
2022-09-12T20:31:33.430Z,17.84
2022-09-12T20:34:00.500Z,17.84
2022-09-12T20:36:27.342Z,17.75
2022-09-12T20:38:56.991Z,17.79
2022-09-12T20:41:25.011Z,17.70
2022-09-12T20:43:55.865Z,17.68
2022-09-12T20:46:26.452Z,17.50
2022-09-12T20:48:53.522Z,17.41
2022-09-12T20:51:21.489Z,17.58
2022-09-12T20:53:48.545Z,17.55
2022-09-12T20:56:17.800Z,17.32
2022-09-12T20:58:47.315Z,17.24
2022-09-12T21:01:15.821Z,17.24
2022-09-12T21:03:43.360Z,16.93
2022-09-12T21:06:12.874Z,16.31
2022-09-12T21:08:39.822Z,17.26
2022-09-12T21:11:07.212Z,17.35
2022-09-12T21:13:33.970Z,16.86
2022-09-12T21:16:15.874Z,17.30
2022-09-12T21:18:44.898Z,16.53
2022-09-12T21:21:15.385Z,17.24
2022-09-12T21:23:42.187Z,16.75
2022-09-12T21:26:11.211Z,16.87
2022-09-12T21:28:37.898Z,16.43
2022-09-12T21:31:05.244Z,16.30
2022-09-12T21:33:31.970Z,16.59
2022-09-12T21:36:05.624Z,16.82
2022-09-12T21:38:32.933Z,16.99
2022-09-12T21:41:07.790Z,17.04
2022-09-12T21:43:35.108Z,16.56
2022-09-12T21:46:07.718Z,16.49
2022-09-12T21:48:35.133Z,16.87
2022-09-12T21:51:02.599Z,16.84
2022-09-12T21:53:29.552Z,16.22
2022-09-12T21:56:03.943Z,15.55
2022-09-12T21:58:31.227Z,15.78
2022-09-12T22:01:03.601Z,16.12
2022-09-12T22:03:30.817Z,16.60
2022-09-12T22:06:01.923Z,16.53
2022-09-12T22:08:32.687Z,16.49
2022-09-12T22:11:02.084Z,16.50
2022-09-12T22:13:32.119Z,16.48
2022-09-12T22:16:03.177Z,15.97
2022-09-12T22:18:34.839Z,16.10
2022-09-12T22:21:06.513Z,16.33
2022-09-12T22:23:51.614Z,16.30
2022-09-12T22:26:20.752Z,15.24
2022-09-12T22:28:50.123Z,15.68
2022-09-12T22:31:17.471Z,16.31
2022-09-12T22:33:46.743Z,16.06
2022-09-12T22:36:13.556Z,16.26
2022-09-12T22:38:40.527Z,16.17
2022-09-12T22:41:10.005Z,16.04
2022-09-12T22:43:41.904Z,15.80
2022-09-12T22:46:14.969Z,15.85
2022-09-12T22:48:41.914Z,15.81
2022-09-12T22:51:17.038Z,15.66
2022-09-12T22:53:46.825Z,15.81
2022-09-12T22:56:16.241Z,15.70
2022-09-12T22:58:43.504Z,15.90
2022-09-12T23:01:10.570Z,15.80
2022-09-12T23:03:40.132Z,15.58
2022-09-12T23:06:07.399Z,15.48
2022-09-12T23:08:35.781Z,15.73
2022-09-12T23:11:04.743Z,15.77
2022-09-12T23:13:33.721Z,15.47
2022-09-12T23:16:01.658Z,15.05
2022-09-12T23:18:33.721Z,15.59
2022-09-12T23:21:02.432Z,15.63
2022-09-12T23:23:31.780Z,14.96
2022-09-12T23:26:02.285Z,14.65
2022-09-12T23:28:29.315Z,15.24
2022-09-12T23:30:56.750Z,15.21
2022-09-12T23:33:23.592Z,14.45
2022-09-12T23:35:52.584Z,14.91
2022-09-12T23:38:21.900Z,14.59
2022-09-12T23:40:48.502Z,15.25
2022-09-12T23:43:19.971Z,15.25
2022-09-12T23:45:49.395Z,15.17
2022-09-12T23:48:16.093Z,14.71
2022-09-12T23:50:47.110Z,15.27
2022-09-12T23:53:14.970Z,15.33
2022-09-12T23:55:41.900Z,14.88
2022-09-12T23:58:10.737Z,13.64
